Time;durP1;ratioP1;P1;durP2;ratioP2;P2;SDS_P1;SDS_P2;PMS_P1;PMS_P2;Temp;Humidity;BMP_temperature;BMP_pressure;BME280_temperature;BME280_humidity;BME280_pressure;Samples;Min_cycle;Max_cycle;Signal;HPM_P1;HPM_P2
2024/03/10 00:02:07;;;;;;;27.67;14.20;;;6.70;99.90;;;;;;5011239;28;20061;-73
2024/03/10 00:04:33;;;;;;;26.63;13.38;;;6.70;99.90;;;;;;5009442;28;20446;-73
2024/03/10 00:07:01;;;;;;;24.17;12.65;;;6.60;99.90;;;;;;5004685;28;20052;-74
2024/03/10 00:09:27;;;;;;;26.65;13.35;;;6.50;99.90;;;;;;5007727;28;20108;-73
2024/03/10 00:11:54;;;;;;;29.83;14.32;;;6.50;99.90;;;;;;5012969;28;20030;-73
2024/03/10 00:14:20;;;;;;;28.50;12.95;;;6.50;99.90;;;;;;5025675;28;20028;-73
2024/03/10 00:16:46;;;;;;;29.90;14.38;;;6.50;99.90;;;;;;5010952;28;20025;-73
2024/03/10 00:19:11;;;;;;;27.65;13.07;;;6.60;99.90;;;;;;5011029;28;20492;-73
2024/03/10 00:21:40;;;;;;;30.33;13.80;;;6.50;99.90;;;;;;5008970;28;20160;-74
2024/03/10 00:24:07;;;;;;;26.80;13.43;;;6.60;99.90;;;;;;5009433;28;20116;-73
2024/03/10 00:26:34;;;;;;;27.85;14.15;;;6.60;99.90;;;;;;5011349;28;20029;-74
2024/03/10 00:29:01;;;;;;;29.33;14.07;;;6.60;99.90;;;;;;5009194;28;20073;-73
2024/03/10 00:31:27;;;;;;;27.55;13.15;;;6.60;99.90;;;;;;5005818;28;20034;-73
2024/03/10 00:33:53;;;;;;;25.77;13.55;;;6.70;99.90;;;;;;5006034;28;20095;-73
2024/03/10 00:36:20;;;;;;;29.02;14.23;;;6.60;99.90;;;;;;5008431;28;20026;-73
2024/03/10 00:38:46;;;;;;;28.98;13.75;;;6.50;99.90;;;;;;5008211;28;20126;-74
2024/03/10 00:41:12;;;;;;;26.92;13.50;;;6.50;99.90;;;;;;5008475;28;20034;-74
2024/03/10 00:43:37;;;;;;;24.98;13.02;;;6.50;99.90;;;;;;5010837;28;20084;-74
2024/03/10 00:46:04;;;;;;;26.48;13.45;;;6.50;99.90;;;;;;5008712;28;20037;-73
2024/03/10 00:48:30;;;;;;;27.20;13.52;;;6.40;99.90;;;;;;5008249;28;20056;-73
2024/03/10 00:50:56;;;;;;;30.75;14.38;;;6.40;99.90;;;;;;5008887;28;20435;-73
2024/03/10 00:53:22;;;;;;;25.80;13.73;;;6.40;99.90;;;;;;5000111;28;20820;-74
2024/03/10 00:55:47;;;;;;;31.73;14.70;;;6.40;99.90;;;;;;5006732;28;20025;-73
2024/03/10 00:58:14;;;;;;;33.33;14.55;;;6.50;99.90;;;;;;5008958;28;20026;-73
2024/03/10 01:00:41;;;;;;;26.95;13.90;;;6.40;99.90;;;;;;5013612;28;20774;-73
2024/03/10 01:03:07;;;;;;;30.60;13.95;;;6.30;99.90;;;;;;5008072;28;20777;-73
2024/03/10 01:05:33;;;;;;;27.48;13.38;;;6.30;99.90;;;;;;5003504;28;20030;-73
2024/03/10 01:08:02;;;;;;;26.70;13.60;;;6.30;99.90;;;;;;5006942;28;20022;-74
2024/03/10 01:10:28;;;;;;;24.80;13.20;;;6.30;99.90;;;;;;5009444;28;20205;-73
2024/03/10 01:12:55;;;;;;;27.35;13.77;;;6.20;99.90;;;;;;5006499;28;20033;-73
2024/03/10 01:15:24;;;;;;;27.77;12.68;;;6.30;99.90;;;;;;5009542;28;20600;-73
2024/03/10 01:17:50;;;;;;;26.77;12.90;;;6.30;99.90;;;;;;5009521;28;20033;-74
2024/03/10 01:20:16;;;;;;;26.88;13.00;;;6.40;99.90;;;;;;4999867;28;20393;-73
2024/03/10 01:22:42;;;;;;;27.02;13.27;;;6.30;99.90;;;;;;5010475;28;20124;-73
2024/03/10 01:25:09;;;;;;;24.35;12.43;;;6.20;99.90;;;;;;5006419;28;20471;-72
2024/03/10 01:27:36;;;;;;;28.52;14.25;;;6.30;99.90;;;;;;5010150;28;20441;-73
2024/03/10 01:30:03;;;;;;;25.65;12.98;;;6.20;99.90;;;;;;5013803;28;20048;-73
2024/03/10 01:32:29;;;;;;;26.55;12.88;;;6.20;99.90;;;;;;5011233;28;20033;-73
2024/03/10 01:34:55;;;;;;;27.40;14.13;;;6.30;99.90;;;;;;5022876;28;20068;-73
2024/03/10 01:37:21;;;;;;;23.50;13.32;;;6.20;99.90;;;;;;5003488;28;20026;-73
2024/03/10 01:39:47;;;;;;;25.38;13.43;;;6.10;99.90;;;;;;5015131;28;20497;-74
2024/03/10 01:42:13;;;;;;;32.40;14.13;;;6.10;99.90;;;;;;5014044;28;20034;-73
2024/03/10 01:44:39;;;;;;;25.63;12.25;;;5.90;99.90;;;;;;5005490;28;20041;-73
2024/03/10 01:47:06;;;;;;;26.73;13.27;;;6.00;99.90;;;;;;5007318;28;20037;-73
2024/03/10 01:49:33;;;;;;;26.40;13.65;;;6.00;99.90;;;;;;5003340;28;20054;-73
2024/03/10 01:52:02;;;;;;;28.30;13.20;;;6.00;99.90;;;;;;5008395;28;20038;-73
2024/03/10 01:54:33;;;;;;;27.77;13.15;;;5.90;99.90;;;;;;5007246;28;20029;-73
2024/03/10 01:56:59;;;;;;;25.05;12.55;;;5.90;99.90;;;;;;5008929;28;20050;-73
2024/03/10 01:59:26;;;;;;;25.25;13.25;;;5.90;99.90;;;;;;5006185;28;20073;-73
2024/03/10 02:01:53;;;;;;;25.20;13.88;;;5.90;99.90;;;;;;5013177;28;20467;-73
2024/03/10 02:04:20;;;;;;;31.45;14.80;;;5.90;99.90;;;;;;5006700;28;20603;-73
2024/03/10 02:06:46;;;;;;;26.58;13.55;;;5.90;99.90;;;;;;5011316;28;20045;-74
2024/03/10 02:09:21;;;;;;;27.67;13.68;;;5.90;99.90;;;;;;5021125;28;20101;-73
2024/03/10 02:11:47;;;;;;;28.80;13.88;;;5.90;99.90;;;;;;5003895;28;20073;-69
2024/03/10 02:14:13;;;;;;;25.98;13.63;;;6.00;99.90;;;;;;5011237;28;20040;-69
2024/03/10 02:16:40;;;;;;;27.88;13.18;;;6.00;99.90;;;;;;5004571;28;20022;-69
2024/03/10 02:19:06;;;;;;;24.55;13.23;;;5.90;99.90;;;;;;5004760;28;20033;-69
2024/03/10 02:21:32;;;;;;;32.75;13.85;;;5.80;99.90;;;;;;5009310;28;20500;-69
2024/03/10 02:24:01;;;;;;;25.70;12.32;;;5.90;99.90;;;;;;5010940;28;20036;-68
2024/03/10 02:26:32;;;;;;;29.08;13.85;;;5.90;99.90;;;;;;5006075;28;20072;-68
2024/03/10 02:29:14;;;;;;;28.60;12.65;;;5.90;99.90;;;;;;5007966;28;20064;-69
2024/03/10 02:48:13;;;;;;;26.05;12.77;;;5.80;99.90;;;;;;5016586;28;20038;-69
2024/03/10 02:50:40;;;;;;;25.33;12.55;;;5.70;99.90;;;;;;5010381;28;21758;-68
2024/03/10 02:53:07;;;;;;;34.35;14.80;;;5.70;99.90;;;;;;5010688;28;20552;-69
2024/03/10 02:55:33;;;;;;;26.73;12.52;;;5.80;99.90;;;;;;5009654;28;20030;-69
2024/03/10 02:58:04;;;;;;;27.85;12.27;;;5.60;99.90;;;;;;5010106;28;20145;-69
2024/03/10 03:00:34;;;;;;;29.70;13.73;;;5.70;99.90;;;;;;4999484;28;20564;-69
2024/03/10 03:03:00;;;;;;;27.45;13.30;;;5.80;99.90;;;;;;5000126;28;20029;-69
2024/03/10 03:05:26;;;;;;;26.60;13.77;;;5.80;99.90;;;;;;5007993;28;20864;-69
2024/03/10 03:07:53;;;;;;;29.67;13.55;;;5.70;99.90;;;;;;5010412;28;20033;-69
2024/03/10 03:10:19;;;;;;;26.02;13.52;;;5.70;99.90;;;;;;5007328;28;20045;-69
2024/03/10 03:12:46;;;;;;;29.17;14.25;;;5.70;99.90;;;;;;5005674;28;20026;-69
2024/03/10 03:15:13;;;;;;;28.35;12.20;;;5.70;99.90;;;;;;5006281;28;20105;-69
2024/03/10 03:17:41;;;;;;;25.30;11.70;;;5.70;99.90;;;;;;4996219;28;20028;-69
2024/03/10 03:20:16;;;;;;;23.05;12.88;;;5.60;99.90;;;;;;5006443;28;20442;-69
2024/03/10 03:22:47;;;;;;;29.15;13.63;;;5.60;99.90;;;;;;5012426;28;20488;-69
2024/03/10 03:25:13;;;;;;;27.17;12.60;;;5.60;99.90;;;;;;5011125;28;20071;-69
2024/03/10 03:27:41;;;;;;;28.05;13.20;;;5.70;99.90;;;;;;4998122;28;20041;-69
2024/03/10 03:30:07;;;;;;;24.83;13.07;;;5.60;99.90;;;;;;5004970;28;20124;-69
2024/03/10 03:32:36;;;;;;;32.28;13.90;;;5.60;99.90;;;;;;5003893;28;20428;-69
2024/03/10 03:35:03;;;;;;;28.30;12.77;;;5.50;99.90;;;;;;5004618;28;20378;-68
2024/03/10 03:37:30;;;;;;;26.08;12.95;;;5.60;99.90;;;;;;5006057;28;20040;-69
2024/03/10 03:39:57;;;;;;;30.98;13.68;;;5.60;99.90;;;;;;5005460;28;20062;-69
2024/03/10 03:42:22;;;;;;;26.30;12.55;;;5.60;99.90;;;;;;5013548;28;20081;-69
2024/03/10 03:44:51;;;;;;;24.98;12.32;;;5.60;99.90;;;;;;5002492;28;20584;-68
2024/03/10 03:47:17;;;;;;;26.90;12.13;;;5.60;99.90;;;;;;5003207;28;20497;-69
2024/03/10 03:49:46;;;;;;;27.23;13.52;;;5.50;99.90;;;;;;5011757;28;20033;-68
2024/03/10 03:52:12;;;;;;;24.38;11.73;;;5.60;99.90;;;;;;5012974;28;20026;-68
2024/03/10 03:54:39;;;;;;;28.60;13.82;;;5.60;99.90;;;;;;5002929;28;20642;-69
2024/03/10 03:57:06;;;;;;;28.80;12.77;;;5.60;99.90;;;;;;5009287;28;20505;-69
2024/03/10 03:59:32;;;;;;;31.92;13.18;;;5.70;99.90;;;;;;5005633;28;20033;-68
2024/03/10 04:01:59;;;;;;;25.70;12.30;;;5.70;99.90;;;;;;5003417;28;20025;-68
2024/03/10 04:04:24;;;;;;;28.48;12.98;;;5.60;99.90;;;;;;5010001;28;20045;-69
2024/03/10 04:06:50;;;;;;;28.33;12.15;;;5.60;99.90;;;;;;5014744;28;20045;-69
2024/03/10 04:09:16;;;;;;;26.60;12.52;;;5.60;99.90;;;;;;5010268;28;20136;-69
2024/03/10 04:11:42;;;;;;;25.85;13.05;;;5.60;99.90;;;;;;5017318;28;20036;-69
2024/03/10 04:14:08;;;;;;;27.23;12.52;;;5.60;99.90;;;;;;5009035;28;20120;-69
2024/03/10 04:16:34;;;;;;;23.50;12.77;;;5.60;99.90;;;;;;5003817;28;20757;-69
2024/03/10 04:19:00;;;;;;;28.65;12.77;;;5.60;99.90;;;;;;5006751;28;20824;-68
2024/03/10 04:21:26;;;;;;;26.58;12.57;;;5.60;99.90;;;;;;5016107;28;20026;-68
2024/03/10 04:23:51;;;;;;;30.10;13.60;;;5.60;99.90;;;;;;5008292;28;20021;-69
2024/03/10 04:26:18;;;;;;;28.40;13.40;;;5.60;99.90;;;;;;5012212;28;20111;-69
2024/03/10 04:28:44;;;;;;;26.20;13.02;;;5.50;99.90;;;;;;5011070;28;20030;-69
2024/03/10 04:31:12;;;;;;;26.35;12.57;;;5.60;99.90;;;;;;5005453;28;20137;-69
2024/03/10 04:33:37;;;;;;;24.55;12.05;;;5.70;99.90;;;;;;5012668;28;20041;-69
2024/03/10 04:36:04;;;;;;;25.17;12.57;;;5.70;99.90;;;;;;5009964;28;20041;-68
2024/03/10 04:38:30;;;;;;;27.42;11.32;;;5.70;99.90;;;;;;5012041;28;20085;-68
2024/03/10 04:40:56;;;;;;;27.23;12.60;;;5.70;99.90;;;;;;5014401;28;20037;-68
2024/03/10 04:43:23;;;;;;;27.48;13.10;;;5.70;99.90;;;;;;5009877;28;20034;-69
2024/03/10 04:45:49;;;;;;;31.85;12.50;;;5.70;99.90;;;;;;5008645;28;20397;-69
2024/03/10 04:48:15;;;;;;;27.27;12.45;;;5.70;99.90;;;;;;5008275;28;20030;-68
2024/03/10 04:50:42;;;;;;;24.40;12.52;;;5.70;99.90;;;;;;5014011;28;20132;-69
2024/03/10 04:53:07;;;;;;;27.67;12.85;;;5.70;99.90;;;;;;5013713;28;20140;-69
2024/03/10 04:55:33;;;;;;;25.00;12.45;;;5.70;99.90;;;;;;5010596;28;20083;-69
2024/03/10 04:57:59;;;;;;;23.63;11.05;;;5.60;99.90;;;;;;5006176;28;20131;-69
2024/03/10 05:00:25;;;;;;;24.58;11.88;;;5.60;99.90;;;;;;5008940;28;20035;-68
2024/03/10 05:02:51;;;;;;;25.65;13.23;;;5.60;99.90;;;;;;5011911;28;20060;-68
2024/03/10 05:05:17;;;;;;;29.83;13.93;;;5.60;99.90;;;;;;5012089;28;20160;-68
2024/03/10 05:07:43;;;;;;;29.50;14.18;;;5.60;99.90;;;;;;5014233;28;20377;-68
2024/03/10 05:10:09;;;;;;;29.70;13.00;;;5.60;99.90;;;;;;5013151;28;20099;-68
2024/03/10 05:12:35;;;;;;;28.75;12.65;;;5.50;99.90;;;;;;5010499;28;20030;-69
2024/03/10 05:15:03;;;;;;;28.17;12.18;;;5.40;99.90;;;;;;5003370;28;20053;-68
2024/03/10 05:17:29;;;;;;;22.70;11.63;;;5.50;99.90;;;;;;5005731;28;20029;-68
2024/03/10 05:19:55;;;;;;;25.48;12.93;;;5.50;99.90;;;;;;5010545;28;20080;-69
2024/03/10 05:22:21;;;;;;;29.30;13.48;;;5.50;99.90;;;;;;5011628;28;20052;-69
2024/03/10 05:24:47;;;;;;;28.25;12.93;;;5.60;99.90;;;;;;5009516;28;20041;-68
2024/03/10 05:27:15;;;;;;;29.25;12.38;;;5.60;99.90;;;;;;5031726;28;20040;-69
2024/03/10 05:29:42;;;;;;;29.90;11.73;;;5.60;99.90;;;;;;5008592;28;20116;-69
2024/03/10 05:32:08;;;;;;;29.40;14.27;;;5.60;99.90;;;;;;5003832;28;20030;-69
2024/03/10 05:34:35;;;;;;;26.83;12.85;;;5.60;99.90;;;;;;5010608;28;20878;-68
2024/03/10 05:37:05;;;;;;;26.75;13.15;;;5.60;99.90;;;;;;5009404;28;20484;-68
2024/03/10 05:39:32;;;;;;;32.03;13.43;;;5.60;99.90;;;;;;5013532;28;20116;-69
2024/03/10 05:41:59;;;;;;;31.27;13.00;;;5.70;99.90;;;;;;5011255;28;20040;-68
2024/03/10 05:44:25;;;;;;;29.35;13.73;;;5.70;99.90;;;;;;5005412;28;20087;-68
2024/03/10 05:46:50;;;;;;;35.45;14.27;;;5.60;99.90;;;;;;5004628;28;20394;-68
2024/03/10 05:49:16;;;;;;;31.35;13.32;;;5.60;99.90;;;;;;5010265;28;20045;-68
2024/03/10 05:51:42;;;;;;;28.88;14.40;;;5.60;99.90;;;;;;5005352;28;20029;-69
2024/03/10 05:54:09;;;;;;;29.17;12.95;;;5.60;99.90;;;;;;5009607;28;20047;-68
2024/03/10 05:56:35;;;;;;;31.15;13.52;;;5.60;99.90;;;;;;5008650;28;20045;-69
2024/03/10 05:59:02;;;;;;;37.00;15.52;;;5.60;99.90;;;;;;5006905;28;20396;-68
2024/03/10 06:01:28;;;;;;;32.72;13.95;;;5.70;99.90;;;;;;5008328;28;20207;-68
2024/03/10 06:03:54;;;;;;;32.28;14.68;;;5.60;99.90;;;;;;5012377;28;20104;-68
2024/03/10 06:06:21;;;;;;;27.70;13.68;;;5.60;99.90;;;;;;5011449;28;20633;-68
2024/03/10 06:08:47;;;;;;;32.97;14.93;;;5.60;99.90;;;;;;5016745;28;20045;-68
2024/03/10 06:11:13;;;;;;;31.90;14.63;;;5.70;99.90;;;;;;5006443;28;20036;-68
2024/03/10 06:13:39;;;;;;;32.58;14.88;;;5.70;99.90;;;;;;5004889;28;20045;-68
2024/03/10 06:16:08;;;;;;;34.30;15.07;;;5.80;99.90;;;;;;5005177;28;20076;-69
2024/03/10 06:26:52;;;;;;;31.98;15.30;;;5.90;99.90;;;;;;5006234;28;20045;-69
2024/03/10 06:29:18;;;;;;;29.48;15.07;;;6.00;99.90;;;;;;5005752;28;20037;-69
2024/03/10 06:31:44;;;;;;;32.30;15.80;;;6.00;99.90;;;;;;5001359;28;20057;-68
2024/03/10 06:34:10;;;;;;;36.83;16.05;;;6.10;99.90;;;;;;5008322;28;20033;-68
2024/03/10 06:36:36;;;;;;;35.38;16.33;;;6.10;99.90;;;;;;5020439;28;20018;-69
2024/03/10 06:39:05;;;;;;;36.17;15.82;;;6.10;99.90;;;;;;5012196;28;20463;-68
2024/03/10 06:41:34;;;;;;;34.15;16.58;;;6.20;99.90;;;;;;5023557;28;20542;-68
2024/03/10 06:44:01;;;;;;;32.65;15.35;;;6.20;99.90;;;;;;5003316;28;20029;-69
2024/03/10 06:46:27;;;;;;;35.85;15.18;;;6.30;99.90;;;;;;5007529;28;20030;-69
2024/03/10 06:48:53;;;;;;;31.15;15.00;;;6.30;99.90;;;;;;5010638;28;20452;-68
2024/03/10 06:51:22;;;;;;;36.85;17.13;;;6.30;99.90;;;;;;5008134;28;20049;-69
2024/03/10 06:53:48;;;;;;;33.00;15.40;;;6.30;99.90;;;;;;5007204;28;20026;-69
2024/03/10 06:56:14;;;;;;;33.63;15.45;;;6.30;99.90;;;;;;5004209;28;20112;-68
2024/03/10 06:58:46;;;;;;;33.38;16.48;;;6.40;99.90;;;;;;5008133;28;20072;-68
2024/03/10 07:01:11;;;;;;;34.75;15.90;;;6.40;99.90;;;;;;5005451;28;20025;-69
2024/03/10 07:03:39;;;;;;;30.65;16.60;;;6.50;99.90;;;;;;5011983;28;20056;-68
2024/03/10 07:06:06;;;;;;;34.03;15.88;;;6.50;99.90;;;;;;5009199;28;20068;-69
2024/03/10 07:08:33;;;;;;;34.65;15.70;;;6.70;99.90;;;;;;5009906;28;20045;-69
2024/03/10 07:10:59;;;;;;;34.33;15.88;;;6.80;99.90;;;;;;5009352;28;20033;-69
2024/03/10 07:13:25;;;;;;;32.75;16.33;;;6.80;99.90;;;;;;5006621;28;20911;-68
2024/03/10 07:15:53;;;;;;;38.33;17.02;;;6.70;99.90;;;;;;5013082;28;20087;-68
2024/03/10 07:18:20;;;;;;;29.35;15.25;;;6.80;99.90;;;;;;5009388;28;20044;-69
2024/03/10 07:20:46;;;;;;;36.45;16.50;;;6.80;99.90;;;;;;5006108;28;20029;-68
2024/03/10 07:23:13;;;;;;;38.25;16.00;;;6.70;99.90;;;;;;5013193;28;20497;-68
2024/03/10 07:25:38;;;;;;;36.03;15.73;;;6.80;99.90;;;;;;5004483;28;20025;-68
2024/03/10 07:28:04;;;;;;;32.75;15.23;;;6.80;99.90;;;;;;4998972;28;20467;-68
2024/03/10 07:30:31;;;;;;;33.42;15.35;;;6.90;99.90;;;;;;5007160;28;20041;-68
2024/03/10 07:32:57;;;;;;;33.97;15.40;;;7.00;99.90;;;;;;5009381;28;20030;-68
2024/03/10 07:35:23;;;;;;;31.83;15.43;;;7.10;99.90;;;;;;5010523;28;20035;-69
2024/03/10 07:37:49;;;;;;;29.60;14.50;;;7.40;99.90;;;;;;5007044;28;20103;-68
2024/03/10 07:40:16;;;;;;;32.97;15.70;;;8.00;99.90;;;;;;5005063;28;20445;-69
2024/03/10 07:42:48;;;;;;;32.88;15.30;;;8.60;99.90;;;;;;5008707;28;20028;-69
2024/03/10 07:45:17;;;;;;;33.90;14.80;;;9.30;99.90;;;;;;5010866;28;20916;-69
2024/03/10 07:47:45;;;;;;;28.85;14.95;;;9.70;99.90;;;;;;5015701;28;20034;-69
2024/03/10 07:50:12;;;;;;;28.63;14.82;;;10.20;99.90;;;;;;5011544;28;20096;-69
2024/03/10 07:52:39;;;;;;;29.65;14.27;;;10.20;99.90;;;;;;5013222;28;20280;-69
2024/03/10 07:55:06;;;;;;;32.15;13.75;;;10.50;99.90;;;;;;5004487;28;20817;-70
2024/03/10 07:57:35;;;;;;;28.95;13.98;;;10.70;99.90;;;;;;5003232;28;20062;-69
2024/03/10 08:00:05;;;;;;;28.98;14.55;;;10.80;99.90;;;;;;5010803;28;20034;-68
2024/03/10 08:02:32;;;;;;;29.48;14.75;;;10.80;99.90;;;;;;5008558;28;20476;-69
2024/03/10 08:04:58;;;;;;;34.88;14.90;;;10.80;99.90;;;;;;5007796;28;20030;-69
2024/03/10 08:07:25;;;;;;;26.55;13.75;;;11.00;99.90;;;;;;5010092;28;20032;-69
2024/03/10 08:09:51;;;;;;;30.23;14.73;;;11.20;99.90;;;;;;5008759;28;20807;-69
2024/03/10 08:12:17;;;;;;;27.58;12.65;;;11.20;99.90;;;;;;5009029;28;20026;-69
2024/03/10 08:14:45;;;;;;;26.83;13.90;;;11.10;99.90;;;;;;5020340;28;20446;-69
2024/03/10 08:17:11;;;;;;;27.38;14.23;;;11.10;99.90;;;;;;5010198;28;20037;-69
2024/03/10 08:19:37;;;;;;;30.33;13.73;;;11.00;99.90;;;;;;5010714;28;20042;-68
2024/03/10 08:22:05;;;;;;;28.25;14.15;;;11.10;99.90;;;;;;5014839;28;20044;-68
2024/03/10 08:24:31;;;;;;;26.67;14.30;;;11.10;99.90;;;;;;5009485;28;20041;-68
2024/03/10 08:26:57;;;;;;;24.15;13.90;;;11.00;99.90;;;;;;5004299;28;20037;-69
2024/03/10 08:29:23;;;;;;;26.02;13.63;;;10.90;99.90;;;;;;5009138;28;20026;-69
2024/03/10 08:31:49;;;;;;;28.95;13.35;;;11.10;99.90;;;;;;5011990;28;20122;-69
2024/03/10 08:34:14;;;;;;;29.25;14.98;;;11.40;99.90;;;;;;5011436;28;20018;-69
2024/03/10 08:36:40;;;;;;;25.20;12.70;;;11.70;99.90;;;;;;5010199;28;20476;-69
2024/03/10 08:39:09;;;;;;;25.77;13.95;;;11.70;99.90;;;;;;5006489;28;20485;-69
2024/03/10 08:41:35;;;;;;;26.63;13.40;;;11.50;99.90;;;;;;5007380;28;20497;-69
2024/03/10 08:44:04;;;;;;;27.05;14.05;;;11.60;99.90;;;;;;5016311;28;20045;-69
2024/03/10 08:46:31;;;;;;;25.20;14.27;;;11.60;99.90;;;;;;5011546;28;20065;-69
2024/03/10 08:48:56;;;;;;;22.15;12.65;;;11.70;99.90;;;;;;5009739;28;20029;-69
2024/03/10 08:51:23;;;;;;;26.10;13.40;;;11.60;99.90;;;;;;5015593;28;20538;-69
2024/03/10 08:53:49;;;;;;;26.23;13.10;;;11.60;99.90;;;;;;5011713;28;20028;-69
2024/03/10 08:56:15;;;;;;;24.63;12.65;;;11.60;99.90;;;;;;5005162;28;20033;-69
2024/03/10 08:58:41;;;;;;;23.55;13.65;;;11.60;99.90;;;;;;5014606;28;20030;-69
2024/03/10 09:01:08;;;;;;;24.92;13.70;;;11.60;99.90;;;;;;5015112;28;20076;-69
2024/03/10 09:03:35;;;;;;;24.00;12.65;;;11.80;99.90;;;;;;5010508;28;20504;-69
2024/03/10 09:06:01;;;;;;;23.60;13.02;;;11.80;99.90;;;;;;5009677;28;20017;-70
2024/03/10 09:08:27;;;;;;;22.08;12.85;;;11.80;99.90;;;;;;5007520;28;20118;-69
2024/03/10 09:10:55;;;;;;;24.13;13.18;;;11.90;99.90;;;;;;5004119;28;20030;-70
2024/03/10 09:13:21;;;;;;;24.70;12.95;;;12.30;99.90;;;;;;5010471;28;20058;-70
2024/03/10 09:15:47;;;;;;;23.20;12.30;;;12.60;99.50;;;;;;5011730;28;20106;-70
2024/03/10 09:18:13;;;;;;;23.98;13.93;;;12.80;98.50;;;;;;5013792;28;20469;-70
2024/03/10 09:20:39;;;;;;;23.55;12.50;;;13.10;98.10;;;;;;5009538;28;20021;-70
2024/03/10 09:23:05;;;;;;;25.95;13.32;;;13.50;97.40;;;;;;5006414;28;20068;-68
2024/03/10 09:25:31;;;;;;;23.75;13.02;;;13.90;96.60;;;;;;5009657;28;20053;-67
2024/03/10 09:27:57;;;;;;;21.95;12.73;;;14.10;95.50;;;;;;5025492;28;20580;-69
2024/03/10 09:30:24;;;;;;;22.48;12.07;;;14.30;95.30;;;;;;5014184;28;20127;-69
2024/03/10 09:32:54;;;;;;;26.02;13.30;;;14.30;94.50;;;;;;5015056;28;20032;-68
2024/03/10 09:35:35;;;;;;;20.13;12.50;;;14.20;95.10;;;;;;5001699;28;20670;-68
2024/03/10 09:38:04;;;;;;;22.85;11.65;;;14.10;95.10;;;;;;5008048;28;20038;-69
2024/03/10 09:40:30;;;;;;;24.65;13.50;;;13.90;95.00;;;;;;5003736;28;20049;-69
2024/03/10 09:43:04;;;;;;;23.05;12.15;;;13.80;94.70;;;;;;5005533;28;20041;-69
2024/03/10 09:45:37;;;;;;;22.77;11.95;;;13.60;95.00;;;;;;5007123;28;20084;-68
2024/03/10 09:48:09;;;;;;;21.15;12.40;;;13.30;95.50;;;;;;5010705;28;20072;-68
2024/03/10 09:50:38;;;;;;;20.77;11.48;;;13.20;95.80;;;;;;5012161;28;20408;-70
2024/03/10 09:53:04;;;;;;;22.98;12.40;;;13.10;95.90;;;;;;5009492;28;20756;-70
2024/03/10 09:55:31;;;;;;;23.10;12.77;;;13.20;95.80;;;;;;5000434;28;20034;-70
2024/03/10 09:58:02;;;;;;;21.08;11.95;;;13.20;95.60;;;;;;5013198;28;20559;-70
2024/03/10 10:00:28;;;;;;;21.98;12.85;;;13.10;95.80;;;;;;5014671;28;20377;-70
2024/03/10 10:03:03;;;;;;;20.67;11.45;;;13.10;95.90;;;;;;5014160;28;20048;-70
2024/03/10 10:05:34;;;;;;;20.67;11.80;;;13.20;96.00;;;;;;5009261;28;20038;-69
2024/03/10 10:08:01;;;;;;;24.30;11.88;;;13.30;95.70;;;;;;5013805;28;20507;-68
2024/03/10 10:10:27;;;;;;;20.50;11.50;;;13.40;95.40;;;;;;5006790;28;20033;-68
2024/03/10 10:12:55;;;;;;;22.60;12.02;;;13.60;95.30;;;;;;4987729;28;20030;-68
2024/03/10 10:15:22;;;;;;;22.48;12.57;;;14.30;94.40;;;;;;5014231;28;20030;-69
2024/03/10 10:17:59;;;;;;;22.15;12.55;;;14.40;93.00;;;;;;5012160;28;20099;-69
2024/03/10 10:20:25;;;;;;;21.33;12.18;;;14.50;93.00;;;;;;5007851;28;20184;-68
2024/03/10 10:22:53;;;;;;;23.15;13.07;;;14.40;93.20;;;;;;5010000;28;20038;-69
2024/03/10 10:25:19;;;;;;;23.23;12.38;;;14.40;93.20;;;;;;5006767;28;20026;-69
2024/03/10 10:27:54;;;;;;;22.92;12.32;;;14.40;93.10;;;;;;5010975;28;20036;-69
2024/03/10 10:30:22;;;;;;;21.65;12.45;;;14.90;92.60;;;;;;5005015;28;20049;-69
2024/03/10 10:33:04;;;;;;;20.38;11.90;;;15.00;91.50;;;;;;5009834;28;20488;-69
2024/03/10 10:35:33;;;;;;;22.50;11.95;;;15.00;91.10;;;;;;5012584;28;20064;-69
2024/03/10 10:38:12;;;;;;;22.13;11.73;;;14.90;91.30;;;;;;5006836;28;20750;-71
2024/03/10 10:40:58;;;;;;;22.38;11.63;;;14.70;91.40;;;;;;5007897;28;20035;-69
2024/03/10 10:43:24;;;;;;;23.35;11.95;;;14.50;91.90;;;;;;5009157;28;20029;-69
2024/03/10 10:45:50;;;;;;;19.85;10.77;;;14.20;92.30;;;;;;5005755;28;20125;-70
2024/03/10 10:48:16;;;;;;;24.00;12.02;;;14.10;92.60;;;;;;5003439;28;20030;-70
2024/03/10 10:50:47;;;;;;;19.73;11.75;;;13.90;92.80;;;;;;5008184;28;20061;-70
2024/03/10 10:53:15;;;;;;;21.30;11.77;;;13.90;93.10;;;;;;4999576;28;20038;-70
2024/03/10 10:55:42;;;;;;;20.00;11.88;;;13.90;93.30;;;;;;5020344;28;20113;-70
2024/03/10 10:58:11;;;;;;;24.90;12.23;;;13.80;93.20;;;;;;5006357;28;20037;-70
2024/03/10 11:00:40;;;;;;;25.55;11.85;;;13.80;93.40;;;;;;5006977;28;20026;-70
2024/03/10 11:03:17;;;;;;;21.10;11.50;;;13.80;93.60;;;;;;5005177;28;20057;-69
2024/03/10 11:06:03;;;;;;;21.27;12.05;;;13.90;93.20;;;;;;5010053;28;20393;-70
2024/03/10 11:08:36;;;;;;;21.98;11.85;;;13.80;93.30;;;;;;4998132;28;20041;-70
2024/03/10 11:11:03;;;;;;;23.05;11.68;;;13.70;93.60;;;;;;5009748;28;20049;-70
2024/03/10 11:13:29;;;;;;;20.40;11.60;;;13.70;94.10;;;;;;5007070;28;20465;-70
2024/03/10 11:16:21;;;;;;;22.67;12.68;;;13.60;93.80;;;;;;5010444;28;20025;-70
2024/03/10 11:18:47;;;;;;;22.60;11.85;;;13.80;94.00;;;;;;5007797;28;20026;-70
2024/03/10 11:21:18;;;;;;;22.00;11.85;;;13.90;93.80;;;;;;5011101;28;20057;-70
2024/03/10 11:23:46;;;;;;;24.17;12.00;;;13.90;93.50;;;;;;5002157;28;20031;-69
2024/03/10 11:26:24;;;;;;;23.50;12.77;;;13.80;93.60;;;;;;5008988;28;20033;-69
2024/03/10 11:28:58;;;;;;;18.90;11.02;;;13.50;94.10;;;;;;5008575;28;20032;-70
2024/03/10 11:31:26;;;;;;;22.27;11.93;;;13.50;94.60;;;;;;5011603;28;20029;-70
2024/03/10 11:33:59;;;;;;;20.02;11.30;;;13.60;94.40;;;;;;5009944;28;20030;-70
2024/03/10 11:36:32;;;;;;;19.67;11.40;;;13.40;94.60;;;;;;5003020;28;20445;-70
2024/03/10 11:39:01;;;;;;;19.83;12.07;;;13.50;95.00;;;;;;4996849;28;20030;-70
2024/03/10 11:41:28;;;;;;;22.67;13.07;;;13.60;94.90;;;;;;5008168;28;20103;-70
2024/03/10 11:43:55;;;;;;;24.83;13.23;;;13.70;94.70;;;;;;5011119;28;20573;-70
2024/03/10 11:46:26;;;;;;;21.08;12.32;;;13.70;94.40;;;;;;5003728;28;20030;-68
2024/03/10 11:48:56;;;;;;;22.25;11.98;;;13.50;94.30;;;;;;5002198;28;20117;-69
2024/03/10 11:51:29;;;;;;;24.63;12.68;;;13.50;94.60;;;;;;5004664;28;20073;-69
2024/03/10 11:53:55;;;;;;;21.48;12.10;;;13.50;94.90;;;;;;5006147;28;20026;-70
2024/03/10 11:56:22;;;;;;;22.10;11.88;;;13.20;94.60;;;;;;5010652;28;20432;-69
2024/03/10 11:58:49;;;;;;;19.65;11.77;;;13.20;95.10;;;;;;5008355;28;20553;-69
2024/03/10 12:01:16;;;;;;;19.17;11.68;;;13.20;95.20;;;;;;5005306;28;20037;-69
2024/03/10 12:03:44;;;;;;;23.55;12.77;;;13.20;95.30;;;;;;5011165;28;20081;-66
2024/03/10 12:06:10;;;;;;;22.38;12.55;;;13.20;95.40;;;;;;5005021;28;20751;-68
2024/03/10 12:08:37;;;;;;;21.45;13.40;;;13.20;95.70;;;;;;5006991;28;20153;-68
2024/03/10 12:11:04;;;;;;;21.48;12.43;;;13.20;95.70;;;;;;5005916;28;20728;-68
2024/03/10 12:13:30;;;;;;;22.45;12.63;;;13.20;95.50;;;;;;5000619;28;20030;-69
2024/03/10 12:16:01;;;;;;;22.40;12.05;;;13.20;95.50;;;;;;5012317;28;20610;-68
2024/03/10 12:18:29;;;;;;;19.25;11.63;;;13.20;95.40;;;;;;4997847;28;20038;-70
2024/03/10 12:20:57;;;;;;;22.10;12.15;;;13.30;95.60;;;;;;5000829;28;20026;-70
2024/03/10 12:23:23;;;;;;;21.10;11.98;;;13.30;95.30;;;;;;5010024;28;20039;-71
2024/03/10 12:25:51;;;;;;;21.77;11.82;;;13.20;95.60;;;;;;5004268;28;20036;-71
2024/03/10 12:28:19;;;;;;;20.73;12.75;;;13.20;95.70;;;;;;5009331;28;20079;-70
2024/03/10 12:30:46;;;;;;;20.98;11.57;;;13.40;95.70;;;;;;5012039;28;20500;-70
2024/03/10 12:33:11;;;;;;;20.15;11.25;;;13.40;95.20;;;;;;5007945;28;20036;-68
2024/03/10 12:35:38;;;;;;;23.85;12.00;;;13.50;95.40;;;;;;5010311;28;20034;-71
2024/03/10 12:38:06;;;;;;;19.70;11.00;;;13.50;95.30;;;;;;5003985;28;20049;-71
2024/03/10 12:40:33;;;;;;;22.23;11.30;;;13.30;95.30;;;;;;5011141;28;20386;-70
2024/03/10 12:43:01;;;;;;;22.75;12.00;;;13.30;95.70;;;;;;5011163;28;20065;-69
2024/03/10 12:45:27;;;;;;;19.45;10.77;;;13.40;95.70;;;;;;5012007;28;20060;-63
2024/03/10 12:47:53;;;;;;;19.08;10.60;;;13.30;95.50;;;;;;5007457;28;20092;-69
2024/03/10 12:50:20;;;;;;;19.85;11.38;;;13.30;95.60;;;;;;5008862;28;20425;-68
2024/03/10 12:52:46;;;;;;;23.30;11.77;;;13.40;95.80;;;;;;5011928;28;20026;-69
2024/03/10 12:55:12;;;;;;;21.13;11.10;;;13.40;95.50;;;;;;5013771;28;20033;-68
2024/03/10 12:57:39;;;;;;;22.90;11.00;;;13.40;95.50;;;;;;5010902;28;20030;-69
2024/03/10 13:03:05;;;;;;;18.98;10.65;;;13.50;95.00;;;;;;5005247;28;20507;-67